TimeCST,TemperatureF,Dew PointF,Humidity,Sea Level PressureIn,VisibilityMPH,Wind Direction,Wind SpeedMPH,Gust SpeedMPH,PrecipitationIn,Events,Conditions,WindDirDegrees,DateUTC
12:53 AM,55.9,50.0,80,30.09,8.0,SW,5.8,-,0.01,Rain,Light Rain,220,2012-11-23 06:53:00
1:53 AM,57.0,51.1,81,30.11,10.0,WSW,6.9,-,0.00,,Overcast,250,2012-11-23 07:53:00
2:13 AM,57.2,51.8,82,30.12,10.0,West,6.9,-,N/A,,Overcast,280,2012-11-23 08:13:00
2:38 AM,57.2,51.8,82,30.12,10.0,WNW,8.1,-,N/A,,Overcast,300,2012-11-23 08:38:00
2:53 AM,57.0,52.0,83,30.13,10.0,WNW,9.2,-,N/A,,Overcast,300,2012-11-23 08:53:00
3:01 AM,57.2,51.8,82,30.13,10.0,NW,9.2,-,N/A,,Overcast,320,2012-11-23 09:01:00
3:53 AM,55.9,42.1,60,30.15,10.0,North,17.3,24.2,N/A,,Overcast,350,2012-11-23 09:53:00
4:53 AM,52.0,37.0,57,30.18,10.0,NNW,13.8,-,N/A,,Clear,340,2012-11-23 10:53:00
6:53 AM,46.9,36.0,66,30.24,10.0,NW,6.9,-,N/A,,Clear,320,2012-11-23 12:53:00
7:53 AM,48.9,37.0,64,30.26,10.0,West,5.8,-,N/A,,Clear,280,2012-11-23 13:53:00
8:53 AM,52.0,33.1,49,30.26,10.0,NW,8.1,-,N/A,,Clear,310,2012-11-23 14:53:00
9:53 AM,54.0,33.1,45,30.25,10.0,NW,17.3,26.5,N/A,,Clear,310,2012-11-23 15:53:00
10:53 AM,55.0,33.1,43,30.25,10.0,WNW,17.3,26.5,N/A,,Clear,300,2012-11-23 16:53:00
11:53 AM,54.0,30.9,41,30.25,10.0,NNW,19.6,28.8,N/A,,Clear,330,2012-11-23 17:53:00
12:53 PM,54.0,30.0,40,30.25,10.0,NW,20.7,25.3,N/A,,Clear,310,2012-11-23 18:53:00
1:53 PM,54.0,30.0,40,30.25,10.0,NNW,8.1,-,N/A,,Clear,330,2012-11-23 19:53:00
2:53 PM,53.1,30.0,41,30.26,10.0,NW,16.1,-,N/A,,Clear,310,2012-11-23 20:53:00
3:53 PM,50.0,28.9,44,30.28,10.0,NW,11.5,20.7,N/A,,Clear,320,2012-11-23 21:53:00
4:53 PM,46.9,28.0,48,30.29,10.0,WNW,9.2,-,N/A,,Clear,300,2012-11-23 22:53:00
5:53 PM,44.1,27.0,51,30.32,10.0,NW,6.9,-,N/A,,Clear,310,2012-11-23 23:53:00
6:53 PM,43.0,25.0,49,30.33,10.0,NNW,10.4,-,N/A,,Clear,330,2012-11-24 00:53:00
7:53 PM,42.1,19.9,41,30.34,10.0,NNW,13.8,-,N/A,,Clear,340,2012-11-24 01:53:00
8:53 PM,39.9,19.0,43,30.35,10.0,NNW,12.7,-,N/A,,Clear,330,2012-11-24 02:53:00
9:53 PM,37.9,19.0,47,30.36,10.0,NNW,10.4,-,N/A,,Clear,340,2012-11-24 03:53:00
10:53 PM,36.0,19.0,50,30.36,10.0,NNW,5.8,-,N/A,,Clear,330,2012-11-24 04:53:00
11:53 PM,34.0,19.0,54,30.36,10.0,NW,5.8,-,N/A,,Clear,320,2012-11-24 05:53:00